createdAt,value
2022-10-10T00:00:16.855Z,53.10
2022-10-10T00:02:43.985Z,53.37
2022-10-10T00:05:11.165Z,52.81
2022-10-10T00:07:38.289Z,53.40
2022-10-10T00:10:05.802Z,52.83
2022-10-10T00:12:32.946Z,53.16
2022-10-10T00:15:00.372Z,53.24
2022-10-10T00:17:27.549Z,52.59
2022-10-10T00:19:55.217Z,52.59
2022-10-10T00:22:22.363Z,52.95
2022-10-10T00:24:49.584Z,52.96
2022-10-10T00:27:16.872Z,52.93
2022-10-10T00:29:44.013Z,52.97
2022-10-10T00:32:11.236Z,52.81
2022-10-10T00:34:38.335Z,52.47
2022-10-10T00:37:05.506Z,52.56
2022-10-10T00:39:32.626Z,52.61
2022-10-10T00:41:59.791Z,52.14
2022-10-10T00:44:27.300Z,52.16
2022-10-10T00:46:54.522Z,52.06
2022-10-10T00:49:25.219Z,52.66
2022-10-10T00:51:54.555Z,52.37
2022-10-10T00:54:23.252Z,52.15
2022-10-10T00:56:53.004Z,52.20
2022-10-10T00:59:20.536Z,52.74
2022-10-10T01:01:48.039Z,52.92
2022-10-10T01:04:34.096Z,52.90
2022-10-10T01:07:03.150Z,52.87
2022-10-10T01:09:31.276Z,52.93
2022-10-10T01:12:06.867Z,52.71
2022-10-10T01:14:42.042Z,52.28
2022-10-10T01:17:14.752Z,52.06
2022-10-10T01:19:44.655Z,52.71
2022-10-10T01:22:29.609Z,52.70
2022-10-10T01:25:19.788Z,52.37
2022-10-10T01:27:53.134Z,52.39
2022-10-10T01:30:24.204Z,52.39
2022-10-10T01:32:57.088Z,52.86
2022-10-10T01:35:42.871Z,52.70
2022-10-10T01:38:19.264Z,52.64
2022-10-10T01:40:52.955Z,52.60
2022-10-10T01:43:20.329Z,52.63
2022-10-10T01:45:48.569Z,52.71
2022-10-10T01:48:18.304Z,52.72
2022-10-10T01:51:03.554Z,53.14
2022-10-10T01:53:33.848Z,53.07
2022-10-10T01:56:17.532Z,53.57
2022-10-10T01:58:51.293Z,53.39
2022-10-10T02:01:40.624Z,53.82
2022-10-10T02:04:14.122Z,53.90
2022-10-10T02:06:45.013Z,54.04
2022-10-10T02:09:16.332Z,54.74
2022-10-10T02:11:44.402Z,54.41
2022-10-10T02:14:15.643Z,54.08
2022-10-10T02:16:44.365Z,54.08
2022-10-10T02:19:14.554Z,53.61
2022-10-10T02:21:42.502Z,53.24
2022-10-10T02:24:11.035Z,52.72
2022-10-10T02:26:38.722Z,52.88
2022-10-10T02:29:16.589Z,53.01
2022-10-10T02:31:48.124Z,53.43
2022-10-10T02:34:19.571Z,53.35
2022-10-10T02:36:49.533Z,53.08
2022-10-10T02:39:17.981Z,53.34
2022-10-10T02:41:46.937Z,52.60
2022-10-10T02:44:14.391Z,52.60
2022-10-10T02:46:41.797Z,52.98
2022-10-10T02:49:08.982Z,52.52
2022-10-10T02:51:36.308Z,52.31
2022-10-10T02:54:03.543Z,52.69
2022-10-10T02:56:30.750Z,52.96
2022-10-10T02:58:57.920Z,53.00
2022-10-10T03:01:25.117Z,52.92
2022-10-10T03:03:52.162Z,53.06
2022-10-10T03:06:19.276Z,52.64
2022-10-10T03:08:46.409Z,52.65
2022-10-10T03:11:13.569Z,52.56
2022-10-10T03:13:40.623Z,52.52
2022-10-10T03:16:07.855Z,52.79
2022-10-10T03:18:34.969Z,52.67
2022-10-10T03:21:02.081Z,53.03
2022-10-10T03:23:29.192Z,53.19
2022-10-10T03:25:56.394Z,53.38
2022-10-10T03:28:23.546Z,53.15
2022-10-10T03:30:51.799Z,53.57
2022-10-10T03:33:18.944Z,53.74
2022-10-10T03:35:46.160Z,54.01
2022-10-10T03:38:13.377Z,53.96
2022-10-10T03:40:41.676Z,54.02
2022-10-10T03:43:10.276Z,54.19
2022-10-10T03:45:37.724Z,54.27
2022-10-10T03:48:05.117Z,54.68
2022-10-10T03:50:32.248Z,54.34
2022-10-10T03:52:59.380Z,54.66
2022-10-10T03:55:26.536Z,54.03
2022-10-10T03:57:53.639Z,54.31
2022-10-10T04:00:20.745Z,54.52
2022-10-10T04:02:48.034Z,54.07
2022-10-10T04:05:15.377Z,54.29
2022-10-10T04:07:42.605Z,53.84
2022-10-10T04:10:10.020Z,53.70
2022-10-10T04:12:37.287Z,53.16
2022-10-10T04:15:04.657Z,53.67
2022-10-10T04:17:31.730Z,53.89
2022-10-10T04:19:58.875Z,54.00
2022-10-10T04:22:26.022Z,54.23
2022-10-10T04:24:53.166Z,55.31
2022-10-10T04:27:23.636Z,55.00
2022-10-10T04:29:51.754Z,55.61
2022-10-10T04:32:18.886Z,54.63
2022-10-10T04:34:45.988Z,55.18
2022-10-10T04:37:13.585Z,56.28
2022-10-10T04:39:40.692Z,56.48
2022-10-10T04:42:07.803Z,56.47
2022-10-10T04:44:34.922Z,56.27
2022-10-10T04:47:02.000Z,57.09
2022-10-10T04:49:29.158Z,56.72
2022-10-10T04:51:56.249Z,56.80
2022-10-10T04:54:23.393Z,56.60
2022-10-10T04:56:50.521Z,56.62
2022-10-10T04:59:17.706Z,56.55
2022-10-10T05:01:46.046Z,56.60
2022-10-10T05:04:14.639Z,56.71
2022-10-10T05:06:41.849Z,56.58
2022-10-10T05:09:09.080Z,56.31
2022-10-10T05:11:36.253Z,56.47
2022-10-10T05:14:03.493Z,56.65
2022-10-10T05:16:31.154Z,57.09
2022-10-10T05:18:58.401Z,58.16
2022-10-10T05:21:25.650Z,59.28
2022-10-10T05:23:52.785Z,59.82
2022-10-10T05:26:20.688Z,60.17
2022-10-10T05:28:48.288Z,60.12
2022-10-10T05:31:15.491Z,60.38
2022-10-10T05:33:42.585Z,60.46
2022-10-10T05:36:11.791Z,60.83
2022-10-10T05:38:39.769Z,61.31
2022-10-10T05:41:07.432Z,62.11
2022-10-10T05:43:35.320Z,62.94
2022-10-10T05:46:02.552Z,63.30
2022-10-10T05:48:29.658Z,63.27
2022-10-10T05:50:57.470Z,63.19
2022-10-10T05:53:26.146Z,63.59
2022-10-10T05:55:53.396Z,64.76
2022-10-10T05:58:21.869Z,64.77
2022-10-10T06:00:52.881Z,64.49
2022-10-10T06:03:20.631Z,63.95
2022-10-10T06:05:51.025Z,62.95
2022-10-10T06:08:18.318Z,62.36
2022-10-10T06:10:46.232Z,61.92
2022-10-10T06:13:17.396Z,62.12
2022-10-10T06:15:50.178Z,61.88
2022-10-10T06:18:17.943Z,61.99
2022-10-10T06:20:45.119Z,62.22
2022-10-10T06:23:12.329Z,62.29
2022-10-10T06:25:41.269Z,62.61
2022-10-10T06:28:09.902Z,62.34
2022-10-10T06:30:44.069Z,62.72
2022-10-10T06:33:11.880Z,62.70
2022-10-10T06:35:40.651Z,63.10
2022-10-10T06:38:07.787Z,63.40
2022-10-10T06:40:35.629Z,64.04
2022-10-10T06:43:05.198Z,63.93
2022-10-10T06:45:36.056Z,63.54
2022-10-10T06:48:03.425Z,62.90
2022-10-10T06:50:30.565Z,62.79
2022-10-10T06:52:58.292Z,61.75
2022-10-10T06:55:25.618Z,61.19
2022-10-10T06:57:52.740Z,60.03
2022-10-10T07:00:20.098Z,58.78
2022-10-10T07:02:47.215Z,58.78
2022-10-10T07:05:16.498Z,59.04
2022-10-10T07:07:44.363Z,59.29
2022-10-10T07:10:13.230Z,59.50
2022-10-10T07:12:44.478Z,59.38
2022-10-10T07:15:12.574Z,58.31
2022-10-10T07:17:40.124Z,57.47
2022-10-10T07:20:07.748Z,57.59
2022-10-10T07:22:35.177Z,56.60
2022-10-10T07:25:02.381Z,56.03
2022-10-10T07:27:29.627Z,55.76
2022-10-10T07:29:56.868Z,56.08
2022-10-10T07:32:24.061Z,56.32
2022-10-10T07:34:51.247Z,56.28
2022-10-10T07:37:18.414Z,56.30
2022-10-10T07:39:45.585Z,57.02
2022-10-10T07:42:12.757Z,57.15
2022-10-10T07:44:39.900Z,57.60
2022-10-10T07:47:07.121Z,57.67
2022-10-10T07:49:34.251Z,57.42
2022-10-10T07:52:01.890Z,56.85
2022-10-10T07:54:29.855Z,56.63
2022-10-10T07:56:57.817Z,57.18
2022-10-10T07:59:25.083Z,56.95
2022-10-10T08:01:52.305Z,56.86
2022-10-10T08:04:19.939Z,56.81
2022-10-10T08:06:47.106Z,56.40
2022-10-10T08:09:14.310Z,55.85
2022-10-10T08:11:41.438Z,55.63
2022-10-10T08:14:08.614Z,55.89
2022-10-10T08:16:35.874Z,56.04
2022-10-10T08:19:04.021Z,56.57
2022-10-10T08:21:31.316Z,56.79
2022-10-10T08:23:58.567Z,56.38
2022-10-10T08:26:25.990Z,56.19
2022-10-10T08:28:53.237Z,56.21
2022-10-10T08:31:21.634Z,55.97
2022-10-10T08:33:49.459Z,55.91
2022-10-10T08:36:18.198Z,55.68
2022-10-10T08:38:45.507Z,55.41
2022-10-10T08:41:24.440Z,55.19
2022-10-10T08:43:55.117Z,55.33
2022-10-10T08:46:36.676Z,55.59
2022-10-10T08:49:14.332Z,55.21
2022-10-10T08:51:43.062Z,55.23
2022-10-10T08:54:13.206Z,55.42
2022-10-10T08:56:41.622Z,54.67
2022-10-10T08:59:16.337Z,54.96
2022-10-10T09:02:18.918Z,54.49
2022-10-10T09:04:33.619Z,55.07
2022-10-10T09:07:14.968Z,55.12
2022-10-10T09:10:05.465Z,54.99
2022-10-10T09:12:32.615Z,54.69
2022-10-10T09:15:05.917Z,54.59
2022-10-10T09:17:39.570Z,55.13
2022-10-10T09:20:15.793Z,55.22
2022-10-10T09:23:03.441Z,55.54
2022-10-10T09:25:33.505Z,55.43
2022-10-10T09:28:08.052Z,55.22
2022-10-10T09:30:37.454Z,55.47
2022-10-10T09:33:09.440Z,55.74
2022-10-10T09:35:39.106Z,55.57
2022-10-10T09:38:09.401Z,55.06
2022-10-10T09:40:38.607Z,54.36
2022-10-10T09:43:11.936Z,54.83
2022-10-10T09:45:44.314Z,54.54
2022-10-10T09:48:11.572Z,55.33
2022-10-10T09:50:41.765Z,55.55
2022-10-10T09:53:14.204Z,54.57
2022-10-10T09:55:41.812Z,54.55
2022-10-10T09:58:15.689Z,55.00
2022-10-10T10:00:42.966Z,55.35
2022-10-10T10:03:10.081Z,55.12
2022-10-10T10:05:37.691Z,55.00
2022-10-10T10:08:04.982Z,54.35
2022-10-10T10:10:35.611Z,54.50
2022-10-10T10:13:02.840Z,54.76
2022-10-10T10:15:31.725Z,53.27
2022-10-10T10:18:17.078Z,52.87
2022-10-10T10:20:45.636Z,52.14
2022-10-10T10:23:39.092Z,51.77
2022-10-10T10:26:24.730Z,51.51
2022-10-10T10:28:52.616Z,51.59
2022-10-10T10:31:42.648Z,51.88
2022-10-10T10:34:20.639Z,50.65
2022-10-10T10:37:02.677Z,50.59
2022-10-10T10:39:29.837Z,50.77
2022-10-10T10:42:02.841Z,50.14
2022-10-10T10:44:36.430Z,49.99
2022-10-10T10:47:23.868Z,49.33
2022-10-10T10:50:09.835Z,50.48
2022-10-10T10:52:49.708Z,49.37
2022-10-10T10:55:21.844Z,49.97
2022-10-10T10:58:58.092Z,49.36
2022-10-10T11:01:24.135Z,48.85
2022-10-10T11:05:19.331Z,48.50
2022-10-10T11:07:17.957Z,47.72
2022-10-10T11:09:52.684Z,48.14
2022-10-10T11:12:38.146Z,48.05
2022-10-10T11:15:05.353Z,48.25
2022-10-10T11:17:38.821Z,48.71
2022-10-10T11:20:12.113Z,47.31
2022-10-10T11:22:46.276Z,46.88
2022-10-10T11:25:23.412Z,47.29
2022-10-10T11:28:06.455Z,47.49
2022-10-10T11:30:35.922Z,47.70
2022-10-10T11:33:11.917Z,47.27
2022-10-10T11:35:48.590Z,47.63
2022-10-10T11:38:18.518Z,46.63
2022-10-10T11:40:53.138Z,46.88
2022-10-10T11:43:24.474Z,47.18
2022-10-10T11:45:56.764Z,47.30
2022-10-10T11:48:32.270Z,47.59
2022-10-10T11:51:25.841Z,47.27
2022-10-10T11:53:56.426Z,46.19
2022-10-10T11:56:23.610Z,45.95
2022-10-10T11:58:54.758Z,45.83
2022-10-10T12:01:33.863Z,45.88
2022-10-10T12:04:01.006Z,45.93
2022-10-10T12:06:44.530Z,47.01
2022-10-10T12:09:28.059Z,45.77
2022-10-10T12:11:55.594Z,45.41
2022-10-10T12:14:23.051Z,45.57
2022-10-10T12:16:50.392Z,46.03
2022-10-10T12:19:17.536Z,46.16
2022-10-10T12:21:54.044Z,46.01
2022-10-10T12:24:21.333Z,45.32
2022-10-10T12:26:54.700Z,45.43
2022-10-10T12:29:39.981Z,45.80
2022-10-10T12:32:23.226Z,45.84
2022-10-10T12:34:50.353Z,45.91
2022-10-10T12:37:25.947Z,46.29
2022-10-10T12:40:02.146Z,45.89
2022-10-10T12:42:31.068Z,46.68
2022-10-10T12:44:58.345Z,45.90
2022-10-10T12:48:03.967Z,45.26
2022-10-10T12:50:41.210Z,45.77
2022-10-10T12:53:20.832Z,45.86
2022-10-10T12:55:49.940Z,46.20
2022-10-10T12:58:27.727Z,45.88
2022-10-10T13:00:56.906Z,45.88
2022-10-10T13:03:27.167Z,45.11
2022-10-10T13:05:56.370Z,45.49
2022-10-10T13:08:25.476Z,45.03
2022-10-10T13:11:07.924Z,44.83
2022-10-10T13:13:35.585Z,44.42
2022-10-10T13:16:11.716Z,44.28
2022-10-10T13:18:40.346Z,44.40
2022-10-10T13:21:12.977Z,44.88
2022-10-10T13:23:42.052Z,45.16
2022-10-10T13:26:35.351Z,45.15
2022-10-10T13:29:14.341Z,45.27
2022-10-10T13:31:42.918Z,45.70
2022-10-10T13:34:15.657Z,45.45
2022-10-10T13:36:43.542Z,46.17
2022-10-10T13:39:17.618Z,46.79
2022-10-10T13:41:48.395Z,46.12
2022-10-10T13:44:16.824Z,46.15
2022-10-10T13:46:44.068Z,46.36
2022-10-10T13:49:20.789Z,46.07
2022-10-10T13:51:48.039Z,46.34
2022-10-10T13:54:34.019Z,45.79
2022-10-10T13:57:05.812Z,45.57
2022-10-10T13:59:34.152Z,45.78
2022-10-10T14:02:04.469Z,46.10
2022-10-10T14:04:40.545Z,46.17
2022-10-10T14:07:11.500Z,46.23
2022-10-10T14:09:40.913Z,46.12
2022-10-10T14:12:16.272Z,46.08
2022-10-10T14:14:45.214Z,46.17
2022-10-10T14:17:12.576Z,46.05
2022-10-10T14:19:39.884Z,46.08
2022-10-10T14:22:07.126Z,45.89
2022-10-10T14:24:34.356Z,45.69
2022-10-10T14:27:14.198Z,45.86
2022-10-10T14:29:41.660Z,46.09
2022-10-10T14:32:10.040Z,45.96
2022-10-10T14:34:37.269Z,45.68
2022-10-10T14:37:04.780Z,45.67
2022-10-10T14:39:32.423Z,45.77
2022-10-10T14:42:01.383Z,46.02
2022-10-10T14:44:28.563Z,46.55
2022-10-10T14:46:55.819Z,45.86
2022-10-10T14:49:23.119Z,46.18
2022-10-10T14:51:50.593Z,46.02
2022-10-10T14:54:17.856Z,46.40
2022-10-10T14:57:08.881Z,47.75
2022-10-10T14:59:47.743Z,46.67
2022-10-10T15:02:17.565Z,46.31
2022-10-10T15:04:44.672Z,46.33
2022-10-10T15:07:13.805Z,48.26
2022-10-10T15:09:52.498Z,46.69
2022-10-10T15:12:30.069Z,47.08
2022-10-10T15:14:57.362Z,47.06
2022-10-10T15:17:25.614Z,46.98
2022-10-10T15:19:53.148Z,47.33
2022-10-10T15:22:20.409Z,47.03
2022-10-10T15:24:47.687Z,47.79
2022-10-10T15:27:14.993Z,47.39
2022-10-10T15:29:42.143Z,47.54
2022-10-10T15:32:09.324Z,47.45
2022-10-10T15:34:36.661Z,47.68
2022-10-10T15:37:03.864Z,47.18
2022-10-10T15:39:31.209Z,47.59
2022-10-10T15:42:01.323Z,48.21
2022-10-10T15:44:34.272Z,48.60
2022-10-10T15:47:01.391Z,47.70
2022-10-10T15:49:28.504Z,47.85
2022-10-10T15:51:55.686Z,46.59
2022-10-10T15:54:22.877Z,46.89
2022-10-10T15:56:49.990Z,47.22
2022-10-10T15:59:17.967Z,47.25
2022-10-10T16:01:51.674Z,47.47
2022-10-10T16:04:19.542Z,47.40
2022-10-10T16:06:54.098Z,47.48
2022-10-10T16:09:28.994Z,47.76
2022-10-10T16:11:59.874Z,48.45
2022-10-10T16:14:27.110Z,48.71
2022-10-10T16:16:54.234Z,48.82
2022-10-10T16:19:21.462Z,49.04
2022-10-10T16:21:48.604Z,49.30
2022-10-10T16:24:16.837Z,49.39
2022-10-10T16:26:44.064Z,49.50
2022-10-10T16:29:11.370Z,49.51
2022-10-10T16:31:39.131Z,49.79
2022-10-10T16:34:07.554Z,49.94
2022-10-10T16:36:35.857Z,49.87
2022-10-10T16:39:03.954Z,49.99
2022-10-10T16:41:48.979Z,49.91
2022-10-10T16:44:17.243Z,49.91
2022-10-10T16:46:44.687Z,50.18
2022-10-10T16:49:12.847Z,50.30
2022-10-10T16:51:40.154Z,50.71
2022-10-10T16:54:07.509Z,50.72
2022-10-10T16:56:35.005Z,50.98
2022-10-10T16:59:02.268Z,51.18
2022-10-10T17:01:29.783Z,51.41
2022-10-10T17:04:00.686Z,51.54
2022-10-10T17:06:34.886Z,51.91
2022-10-10T17:09:06.010Z,52.03
2022-10-10T17:11:33.512Z,52.09
2022-10-10T17:14:00.662Z,52.06
2022-10-10T17:19:16.488Z,52.60
2022-10-10T17:21:43.735Z,52.76
2022-10-10T17:24:11.642Z,53.00
2022-10-10T17:26:38.807Z,53.49
2022-10-10T17:29:06.292Z,53.56
2022-10-10T17:31:33.838Z,53.70
2022-10-10T17:34:01.169Z,54.08
2022-10-10T17:36:28.578Z,54.73
2022-10-10T17:39:02.087Z,55.13
2022-10-10T17:41:29.402Z,55.33
2022-10-10T17:43:56.675Z,55.58
2022-10-10T17:46:41.501Z,55.67
2022-10-10T17:49:09.731Z,55.27
2022-10-10T17:51:37.965Z,55.56
2022-10-10T17:54:06.467Z,55.60
2022-10-10T17:56:33.889Z,55.80
2022-10-10T17:59:01.963Z,55.86
2022-10-10T18:01:36.522Z,56.02
2022-10-10T18:04:04.466Z,56.29
2022-10-10T18:06:32.956Z,56.22
2022-10-10T18:09:00.736Z,56.08
2022-10-10T18:11:29.431Z,56.22
2022-10-10T18:14:00.530Z,56.64
2022-10-10T18:16:29.814Z,57.26
2022-10-10T18:18:58.220Z,57.49
2022-10-10T18:21:25.377Z,57.82
2022-10-10T18:23:52.607Z,58.22
2022-10-10T18:26:26.796Z,58.60
2022-10-10T18:28:55.561Z,58.75
2022-10-10T18:31:24.697Z,59.01
2022-10-10T18:33:52.142Z,59.18
2022-10-10T18:36:20.533Z,59.35
2022-10-10T18:38:47.645Z,59.72
2022-10-10T18:41:19.204Z,59.85
2022-10-10T18:43:46.607Z,60.11
2022-10-10T18:46:15.917Z,60.38
2022-10-10T18:48:43.635Z,60.64
2022-10-10T18:51:15.140Z,60.58
2022-10-10T18:53:43.621Z,60.59
2022-10-10T18:56:14.171Z,60.78
2022-10-10T18:58:41.383Z,60.59
2022-10-10T19:01:12.801Z,60.80
2022-10-10T19:03:40.984Z,60.64
2022-10-10T19:06:09.452Z,60.67
2022-10-10T19:08:37.012Z,60.74
2022-10-10T19:11:05.133Z,60.80
2022-10-10T19:13:33.148Z,61.01
2022-10-10T19:16:07.103Z,61.25
2022-10-10T19:18:34.779Z,61.66
2022-10-10T19:21:03.299Z,61.48
2022-10-10T19:23:31.393Z,61.45
2022-10-10T19:26:03.398Z,61.29
2022-10-10T19:28:31.309Z,61.57
2022-10-10T19:31:02.648Z,61.59
2022-10-10T19:33:30.119Z,61.71
2022-10-10T19:35:59.052Z,62.31
2022-10-10T19:38:26.783Z,62.81
2022-10-10T19:40:54.087Z,63.06
2022-10-10T19:43:21.458Z,63.69
2022-10-10T19:45:51.395Z,64.93
2022-10-10T19:48:19.626Z,66.59
2022-10-10T19:50:47.374Z,68.17
2022-10-10T19:53:17.371Z,67.82
2022-10-10T19:55:46.069Z,68.14
2022-10-10T19:58:13.219Z,68.85
2022-10-10T20:00:41.163Z,68.58
2022-10-10T20:03:08.402Z,69.16
2022-10-10T20:05:35.603Z,69.79
2022-10-10T20:08:02.878Z,70.20
2022-10-10T20:10:30.229Z,70.03
2022-10-10T20:12:57.575Z,69.70
2022-10-10T20:15:24.969Z,69.32
2022-10-10T20:17:52.115Z,69.65
2022-10-10T20:20:19.529Z,69.65
2022-10-10T20:22:46.774Z,69.40
2022-10-10T20:25:14.098Z,69.03
2022-10-10T20:27:42.311Z,68.72
2022-10-10T20:30:09.693Z,68.72
2022-10-10T20:32:37.337Z,68.83
2022-10-10T20:35:04.714Z,68.93
2022-10-10T20:37:33.701Z,69.16
2022-10-10T20:40:00.945Z,69.23
2022-10-10T20:42:28.154Z,69.24
2022-10-10T20:44:55.397Z,69.46
2022-10-10T20:47:23.461Z,69.57
2022-10-10T20:49:51.412Z,69.68
2022-10-10T20:52:18.594Z,69.75
2022-10-10T20:54:45.853Z,70.29
2022-10-10T20:57:13.075Z,70.40
2022-10-10T20:59:40.255Z,70.35
2022-10-10T21:02:08.941Z,69.82
2022-10-10T21:04:36.199Z,70.03
2022-10-10T21:07:03.487Z,70.42
2022-10-10T21:09:32.350Z,70.25
2022-10-10T21:11:59.631Z,70.57
2022-10-10T21:14:26.914Z,70.53
2022-10-10T21:16:54.538Z,70.59
2022-10-10T21:19:21.861Z,70.58
2022-10-10T21:21:49.129Z,70.57
2022-10-10T21:24:16.394Z,70.33
2022-10-10T21:26:43.613Z,70.57
2022-10-10T21:29:13.800Z,71.14
2022-10-10T21:31:41.028Z,71.40
2022-10-10T21:34:11.102Z,70.31
2022-10-10T21:36:38.425Z,69.73
2022-10-10T21:39:09.202Z,69.80
2022-10-10T21:41:36.793Z,69.98
2022-10-10T21:44:04.056Z,69.58
2022-10-10T21:46:36.288Z,70.15
2022-10-10T21:49:07.785Z,70.44
2022-10-10T21:51:37.879Z,71.11
2022-10-10T21:54:05.687Z,72.60
2022-10-10T21:56:33.875Z,73.94
2022-10-10T21:59:01.775Z,73.66
2022-10-10T22:01:32.965Z,73.03
2022-10-10T22:04:01.928Z,72.46
2022-10-10T22:06:29.509Z,72.67
2022-10-10T22:08:58.201Z,73.38
2022-10-10T22:11:26.446Z,73.80
2022-10-10T22:13:53.698Z,73.88
2022-10-10T22:16:22.724Z,73.54
2022-10-10T22:18:52.762Z,73.56
2022-10-10T22:21:19.869Z,73.66
2022-10-10T22:23:49.683Z,73.07
2022-10-10T22:26:17.235Z,73.28
2022-10-10T22:28:45.145Z,73.52
2022-10-10T22:31:13.790Z,73.36
2022-10-10T22:33:41.333Z,73.64
2022-10-10T22:36:09.014Z,73.79
2022-10-10T22:38:40.437Z,73.88
2022-10-10T22:41:08.181Z,73.60
2022-10-10T22:43:35.400Z,73.82
2022-10-10T22:46:03.556Z,73.76
2022-10-10T22:48:30.908Z,73.68
2022-10-10T22:50:59.584Z,73.87
2022-10-10T22:53:27.145Z,73.76
2022-10-10T22:55:54.527Z,73.88
2022-10-10T22:58:21.713Z,73.83
2022-10-10T23:00:48.900Z,73.85
2022-10-10T23:03:17.061Z,74.10
2022-10-10T23:05:44.869Z,74.38
2022-10-10T23:08:12.101Z,74.41
2022-10-10T23:10:39.358Z,74.30
2022-10-10T23:13:06.491Z,74.07
2022-10-10T23:15:33.699Z,74.40
2022-10-10T23:18:01.002Z,74.33
2022-10-10T23:20:28.296Z,74.41
2022-10-10T23:22:55.537Z,74.22
2022-10-10T23:25:22.754Z,74.15
2022-10-10T23:27:49.946Z,74.20
2022-10-10T23:30:30.613Z,74.28
2022-10-10T23:32:58.011Z,74.62
2022-10-10T23:35:38.780Z,74.55
2022-10-10T23:38:20.026Z,75.18
2022-10-10T23:40:59.969Z,75.47
2022-10-10T23:43:41.428Z,75.27
2022-10-10T23:46:22.876Z,75.08
2022-10-10T23:49:04.286Z,75.49
2022-10-10T23:51:45.594Z,75.60
2022-10-10T23:54:27.073Z,75.46
2022-10-10T23:57:08.538Z,75.73
2022-10-10T23:59:49.865Z,75.79
